Time;durP1;ratioP1;P1;durP2;ratioP2;P2;SDS_P1;SDS_P2;PMS_P1;PMS_P2;Temp;Humidity;BMP_temperature;BMP_pressure;BME280_temperature;BME280_humidity;BME280_pressure;Samples;Min_cycle;Max_cycle;Signal;HPM_P1;HPM_P2
2022/09/22 00:02:18;;;;;;;;;;;17.40;99.90;;;;;;4934167;29;19915;-73
2022/09/22 00:04:45;;;;;;;;;;;17.50;99.90;;;;;;4934389;29;20044;-73
2022/09/22 00:07:12;;;;;;;;;;;17.60;99.90;;;;;;4934445;29;19915;-72
2022/09/22 00:09:38;;;;;;;;;;;17.90;99.90;;;;;;4934041;29;19966;-71
2022/09/22 00:12:06;;;;;;;;;;;18.00;99.90;;;;;;4934162;29;20367;-73
2022/09/22 00:14:33;;;;;;;;;;;18.10;99.90;;;;;;4934196;29;20001;-74
2022/09/22 00:17:01;;;;;;;;;;;18.00;99.90;;;;;;4933835;29;20338;-73
2022/09/22 00:19:28;;;;;;;;;;;18.10;99.90;;;;;;4934315;29;19915;-73
2022/09/22 00:21:55;;;;;;;;;;;18.20;99.90;;;;;;4933548;29;20252;-74
2022/09/22 00:24:22;;;;;;;;;;;18.10;99.90;;;;;;4932538;29;19925;-71
2022/09/22 00:26:55;;;;;;;;;;;18.20;99.90;;;;;;4933955;29;19976;-73
2022/09/22 00:29:22;;;;;;;;;;;18.30;99.90;;;;;;4932958;29;19994;-73
2022/09/22 00:31:49;;;;;;;;;;;18.60;99.90;;;;;;4932983;29;19915;-74
2022/09/22 00:34:18;;;;;;;;;;;18.70;99.90;;;;;;4934013;29;20009;-73
2022/09/22 00:36:44;;;;;;;;;;;18.80;99.90;;;;;;4933718;29;19926;-74
2022/09/22 00:39:12;;;;;;;;;;;18.80;99.90;;;;;;4932475;29;19911;-74
2022/09/22 00:41:40;;;;;;;;;;;18.80;99.90;;;;;;4933033;29;19915;-73
2022/09/22 00:44:25;;;;;;;;;;;18.70;99.90;;;;;;4933539;29;19921;-73
2022/09/22 00:46:54;;;;;;;;;;;18.60;99.90;;;;;;4933686;29;19965;-74
2022/09/22 00:49:25;;;;;;;;;;;18.60;99.90;;;;;;4933556;29;19914;-74
2022/09/22 00:51:52;;;;;;;;;;;18.60;99.90;;;;;;4933481;29;19918;-73
2022/09/22 00:54:19;;;;;;;;;;;18.50;99.90;;;;;;4932876;29;19965;-73
2022/09/22 00:57:00;;;;;;;;;;;18.40;99.90;;;;;;4931972;29;20452;-72
2022/09/22 00:59:27;;;;;;;;;;;18.50;99.90;;;;;;4933145;29;19915;-73
2022/09/22 01:01:54;;;;;;;;;;;18.50;99.90;;;;;;4932962;29;19919;-73
2022/09/22 01:04:22;;;;;;;;;;;18.50;99.90;;;;;;4933829;29;19911;-72
2022/09/22 01:06:49;;;;;;;;;;;18.50;99.90;;;;;;4933398;29;19911;-70
2022/09/22 01:09:16;;;;;;;;;;;18.70;99.90;;;;;;4931441;29;19965;-69
2022/09/22 01:11:43;;;;;;;;;;;18.80;99.90;;;;;;4942898;29;19915;-70
2022/09/22 01:14:09;;;;;;;;;;;18.80;99.90;;;;;;4949422;29;19917;-72
2022/09/22 01:16:42;;;;;;;;;;;18.80;99.90;;;;;;4937555;29;19929;-73
2022/09/22 01:19:09;;;;;;;;;;;18.80;99.90;;;;;;4933083;29;19915;-71
2022/09/22 01:21:50;;;;;;;;;;;18.70;99.90;;;;;;4932718;29;19997;-69
2022/09/22 01:24:35;;;;;;;;;;;18.70;99.90;;;;;;4932506;29;20301;-69
2022/09/22 01:27:07;;;;;;;;;;;18.50;99.90;;;;;;4933433;29;20279;-70
2022/09/22 01:29:46;;;;;;;;;;;18.10;99.90;;;;;;4932896;29;19911;-72
2022/09/22 01:32:12;;;;;;;;;;;17.90;99.90;;;;;;4932983;29;20327;-72
2022/09/22 01:34:47;;;;;;;;;;;17.90;99.90;;;;;;4933624;29;19911;-71
2022/09/22 01:37:14;;;;;;;;;;;17.90;99.90;;;;;;4932530;29;19922;-70
2022/09/22 01:39:47;;;;;;;;;;;17.90;99.90;;;;;;4932902;29;20319;-72
2022/09/22 01:42:15;;;;;;;;;;;17.90;99.90;;;;;;4933004;29;20342;-73
2022/09/22 01:44:49;;;;;;;;;;;18.00;99.90;;;;;;4933206;29;19946;-71
2022/09/22 01:47:27;;;;;;;;;;;17.90;99.90;;;;;;4932879;29;20574;-73
2022/09/22 01:49:59;;;;;;;;;;;17.90;99.90;;;;;;4932553;29;20002;-72
2022/09/22 01:52:27;;;;;;;;;;;17.90;99.90;;;;;;4933995;29;20358;-72
2022/09/22 01:54:59;;;;;;;;;;;18.00;99.90;;;;;;4936651;29;20331;-70
2022/09/22 01:57:30;;;;;;;;;;;18.20;99.90;;;;;;4936638;29;20271;-70
2022/09/22 02:00:01;;;;;;;;;;;18.10;99.90;;;;;;4936540;29;19922;-70
2022/09/22 02:02:31;;;;;;;;;;;18.20;99.90;;;;;;4936294;29;20385;-72
2022/09/22 02:04:59;;;;;;;;;;;18.40;99.90;;;;;;4937011;29;19953;-70
2022/09/22 02:07:34;;;;;;;;;;;18.60;99.90;;;;;;4936752;29;19950;-70
2022/09/22 02:10:03;;;;;;;;;;;18.50;99.90;;;;;;4936362;29;19918;-71
2022/09/22 02:12:30;;;;;;;;;;;18.50;99.90;;;;;;4936592;29;19940;-73
2022/09/22 02:14:57;;;;;;;;;;;18.40;99.90;;;;;;4936599;29;19921;-72
2022/09/22 02:17:23;;;;;;;;;;;18.30;99.90;;;;;;4935031;29;20401;-70
2022/09/22 02:19:51;;;;;;;;;;;18.30;99.90;;;;;;4935389;29;19919;-70
2022/09/22 02:22:17;;;;;;;;;;;18.20;99.90;;;;;;4936381;29;19917;-71
2022/09/22 02:24:45;;;;;;;;;;;18.10;99.90;;;;;;4936575;29;19973;-70
2022/09/22 02:27:25;;;;;;;;;;;18.10;99.90;;;;;;4936269;29;19922;-71
2022/09/22 02:30:00;;;;;;;;;;;18.10;99.90;;;;;;4917203;29;20372;-70
2022/09/22 02:32:28;;;;;;;;;;;18.00;99.90;;;;;;4917442;29;19915;-69
2022/09/22 02:34:55;;;;;;;;;;;17.80;99.90;;;;;;4917282;29;19922;-69
2022/09/22 02:37:27;;;;;;;;;;;17.70;99.90;;;;;;4917001;29;20392;-70
2022/09/22 02:40:07;;;;;;;;;;;17.70;99.90;;;;;;4917604;29;19915;-72
2022/09/22 02:42:33;;;;;;;;;;;17.70;99.90;;;;;;4916984;29;19915;-70
2022/09/22 02:45:05;;;;;;;;;;;17.60;99.90;;;;;;4917146;29;20030;-69
2022/09/22 02:47:31;;;;;;;;;;;17.60;99.90;;;;;;4927254;29;19915;-70
2022/09/22 02:49:58;;;;;;;;;;;17.60;99.90;;;;;;4930022;29;19915;-69
2022/09/22 02:52:25;;;;;;;;;;;17.60;99.90;;;;;;4916650;29;19915;-71
2022/09/22 02:54:53;;;;;;;;;;;17.60;99.90;;;;;;4916989;29;19916;-69
2022/09/22 02:57:20;;;;;;;;;;;17.70;99.90;;;;;;4916712;29;20011;-70
2022/09/22 02:59:47;;;;;;;;;;;17.60;99.90;;;;;;4916954;29;19923;-69
2022/09/22 03:02:13;;;;;;;;;;;17.50;99.90;;;;;;4916534;29;20387;-69
2022/09/22 03:04:40;;;;;;;;;;;17.40;99.90;;;;;;4916971;29;19927;-69
2022/09/22 03:07:07;;;;;;;;;;;17.40;99.90;;;;;;4915705;29;19923;-71
2022/09/22 03:09:34;;;;;;;;;;;17.40;99.90;;;;;;4916340;29;19923;-70
2022/09/22 03:12:01;;;;;;;;;;;17.50;99.90;;;;;;4916760;29;19914;-73
2022/09/22 03:14:27;;;;;;;;;;;17.60;99.90;;;;;;4917117;29;20010;-69
2022/09/22 03:16:54;;;;;;;;;;;17.70;99.90;;;;;;4916349;29;20495;-69
2022/09/22 03:19:21;;;;;;;;;;;17.80;99.90;;;;;;4926773;29;19922;-69
2022/09/22 03:21:47;;;;;;;;;;;17.80;99.90;;;;;;4934500;29;20009;-70
2022/09/22 03:24:14;;;;;;;;;;;17.80;99.90;;;;;;4934918;29;19983;-69
2022/09/22 03:26:41;;;;;;;;;;;17.70;99.90;;;;;;4935235;29;19934;-69
2022/09/22 03:29:07;;;;;;;;;;;17.70;99.90;;;;;;4933879;29;19926;-69
2022/09/22 03:31:34;;;;;;;;;;;17.80;99.90;;;;;;4934543;29;19914;-71
2022/09/22 03:34:01;;;;;;;;;;;17.90;99.90;;;;;;4934720;29;19999;-69
2022/09/22 03:36:27;;;;;;;;;;;17.90;99.90;;;;;;4935173;29;19919;-69
2022/09/22 03:38:54;;;;;;;;;;;17.80;99.90;;;;;;4934224;29;19914;-70
2022/09/22 03:41:21;;;;;;;;;;;17.80;99.90;;;;;;4934188;29;19933;-71
2022/09/22 03:43:47;;;;;;;;;;;17.80;99.90;;;;;;4933564;29;20353;-72
2022/09/22 03:46:14;;;;;;;;;;;17.80;99.90;;;;;;4934188;29;19914;-69
2022/09/22 03:48:41;;;;;;;;;;;17.70;99.90;;;;;;4934912;29;19998;-69
2022/09/22 03:51:07;;;;;;;;;;;17.60;99.90;;;;;;4934751;29;19915;-69
2022/09/22 03:53:35;;;;;;;;;;;17.50;99.90;;;;;;4933628;29;19914;-69
2022/09/22 03:56:06;;;;;;;;;;;17.60;99.90;;;;;;4915269;29;19930;-70
2022/09/22 03:58:35;;;;;;;;;;;17.60;99.90;;;;;;4915273;29;19915;-69
2022/09/22 04:01:02;;;;;;;;;;;17.50;99.90;;;;;;4914996;29;19974;-70
2022/09/22 04:03:28;;;;;;;;;;;17.50;99.90;;;;;;4915282;29;19911;-70
2022/09/22 04:05:55;;;;;;;;;;;17.50;99.90;;;;;;4928488;29;20255;-69
2022/09/22 04:08:22;;;;;;;;;;;17.60;99.90;;;;;;4933512;29;19958;-70
2022/09/22 04:10:49;;;;;;;;;;;17.70;99.90;;;;;;4934600;29;19914;-70
2022/09/22 04:13:17;;;;;;;;;;;17.80;99.90;;;;;;4933692;29;19911;-72
2022/09/22 04:15:45;;;;;;;;;;;17.80;99.90;;;;;;4933735;29;19914;-69
2022/09/22 04:18:12;;;;;;;;;;;17.90;99.90;;;;;;4934439;29;19923;-69
2022/09/22 04:20:40;;;;;;;;;;;17.90;99.90;;;;;;4919708;29;20267;-71
2022/09/22 04:23:06;;;;;;;;;;;17.90;99.90;;;;;;4915618;29;19922;-70
2022/09/22 04:25:33;;;;;;;;;;;17.80;99.90;;;;;;4928296;29;19975;-69
2022/09/22 04:28:00;;;;;;;;;;;17.80;99.90;;;;;;4920250;29;19921;-72
2022/09/22 04:30:27;;;;;;;;;;;17.70;99.90;;;;;;4933943;29;19915;-74
2022/09/22 04:32:53;;;;;;;;;;;17.80;99.90;;;;;;4933744;29;20016;-70
2022/09/22 04:35:20;;;;;;;;;;;17.70;99.90;;;;;;4933436;29;19969;-68
2022/09/22 04:37:47;;;;;;;;;;;17.80;99.90;;;;;;4932469;29;19942;-67
2022/09/22 04:40:13;;;;;;;;;;;17.60;99.90;;;;;;4932138;29;19914;-68
2022/09/22 04:42:40;;;;;;;;;;;17.70;99.90;;;;;;4933761;29;19911;-67
2022/09/22 04:45:07;;;;;;;;;;;17.60;99.90;;;;;;4933153;29;19918;-69
2022/09/22 04:47:34;;;;;;;;;;;17.60;99.90;;;;;;4933214;29;19930;-69
2022/09/22 04:50:01;;;;;;;;;;;17.60;99.90;;;;;;4931023;29;20318;-69
2022/09/22 04:52:27;;;;;;;;;;;17.50;99.90;;;;;;4931803;29;19915;-68
2022/09/22 04:54:54;;;;;;;;;;;17.40;99.90;;;;;;4932306;29;19918;-68
2022/09/22 04:57:21;;;;;;;;;;;17.40;99.90;;;;;;4935128;29;19923;-68
2022/09/22 04:59:48;;;;;;;;;;;17.50;99.90;;;;;;4934467;29;20278;-69
2022/09/22 05:02:15;;;;;;;;;;;17.50;99.90;;;;;;4934914;29;19914;-69
2022/09/22 05:04:42;;;;;;;;;;;17.50;99.90;;;;;;4934100;29;20061;-69
2022/09/22 05:07:09;;;;;;;;;;;17.50;99.90;;;;;;4935060;29;19915;-73
2022/09/22 05:09:36;;;;;;;;;;;17.60;99.90;;;;;;4935314;29;20499;-67
2022/09/22 05:12:02;;;;;;;;;;;17.60;99.90;;;;;;4935428;29;19917;-69
2022/09/22 05:14:33;;;;;;;;;;;17.60;99.90;;;;;;4935044;29;19997;-71
2022/09/22 05:17:00;;;;;;;;;;;17.60;99.90;;;;;;4934952;29;20026;-70
2022/09/22 05:19:27;;;;;;;;;;;17.50;99.90;;;;;;4933627;29;20279;-73
2022/09/22 05:21:53;;;;;;;;;;;17.50;99.90;;;;;;4934208;29;19911;-68
2022/09/22 05:24:20;;;;;;;;;;;17.50;99.90;;;;;;4935066;29;19915;-68
2022/09/22 05:26:47;;;;;;;;;;;17.50;99.90;;;;;;4934005;29;19915;-72
2022/09/22 05:29:17;;;;;;;;;;;17.50;99.90;;;;;;4934479;29;20056;-69
2022/09/22 05:31:47;;;;;;;;;;;17.40;99.90;;;;;;4934603;29;19974;-73
2022/09/22 05:34:14;;;;;;;;;;;17.50;99.90;;;;;;4934814;29;20267;-72
2022/09/22 05:36:40;;;;;;;;;;;17.60;99.90;;;;;;4934645;29;20013;-70
2022/09/22 05:39:07;;;;;;;;;;;17.60;99.90;;;;;;4934632;29;20392;-73
2022/09/22 05:41:34;;;;;;;;;;;17.60;99.90;;;;;;4934537;29;19910;-72
2022/09/22 05:44:02;;;;;;;;;;;17.60;99.90;;;;;;4933238;29;20275;-70
2022/09/22 05:46:29;;;;;;;;;;;17.60;99.90;;;;;;4934823;29;20006;-72
2022/09/22 05:48:55;;;;;;;;;;;17.60;99.90;;;;;;4935141;29;20267;-70
2022/09/22 05:51:22;;;;;;;;;;;17.60;99.90;;;;;;4934245;29;19915;-71
2022/09/22 05:53:49;;;;;;;;;;;17.50;99.90;;;;;;4934611;29;20354;-69
2022/09/22 05:56:15;;;;;;;;;;;17.40;99.90;;;;;;4934704;29;19978;-69
2022/09/22 05:58:42;;;;;;;;;;;17.40;99.90;;;;;;4934740;29;19954;-71
2022/09/22 06:01:09;;;;;;;;;;;17.40;99.90;;;;;;4938209;29;19927;-71
2022/09/22 06:03:36;;;;;;;;;;;17.30;99.90;;;;;;4948029;29;19954;-69
2022/09/22 06:06:02;;;;;;;;;;;17.30;99.90;;;;;;4934507;29;20384;-73
2022/09/22 06:08:29;;;;;;;;;;;17.20;99.90;;;;;;4934746;29;19915;-73
2022/09/22 06:11:01;;;;;;;;;;;17.20;99.90;;;;;;4934484;29;19978;-70
2022/09/22 06:13:29;;;;;;;;;;;17.20;99.90;;;;;;4934263;29;19910;-68
2022/09/22 06:15:56;;;;;;;;;;;17.20;99.90;;;;;;4934555;29;19919;-72
2022/09/22 06:18:25;;;;;;;;;;;17.10;99.90;;;;;;4933538;29;20378;-72
2022/09/22 06:20:54;;;;;;;;;;;17.10;99.90;;;;;;4933052;29;19915;-70
2022/09/22 06:23:21;;;;;;;;;;;17.00;99.90;;;;;;4932596;29;19957;-73
2022/09/22 06:25:48;;;;;;;;;;;17.10;99.90;;;;;;4934620;29;19911;-71
2022/09/22 06:28:15;;;;;;;;;;;17.10;99.90;;;;;;4933917;29;19915;-72
2022/09/22 06:30:43;;;;;;;;;;;17.10;99.90;;;;;;4934394;29;19973;-68
2022/09/22 06:33:10;;;;;;;;;;;17.20;99.90;;;;;;4932893;29;19926;-68
2022/09/22 06:35:41;;;;;;;;;;;17.20;99.90;;;;;;4933874;29;19911;-72
2022/09/22 06:38:09;;;;;;;;;;;17.20;99.90;;;;;;4935111;29;19926;-69
2022/09/22 06:40:36;;;;;;;;;;;17.20;99.90;;;;;;4937729;29;19910;-69
2022/09/22 06:43:14;;;;;;;;;;;17.10;99.90;;;;;;4937165;29;19994;-68
2022/09/22 06:45:43;;;;;;;;;;;17.00;99.90;;;;;;4937692;29;20429;-68
2022/09/22 06:48:10;;;;;;;;;;;17.00;99.90;;;;;;4936567;29;20025;-69
2022/09/22 06:50:39;;;;;;;;;;;17.00;99.90;;;;;;4936077;29;19918;-68
2022/09/22 06:53:06;;;;;;;;;;;17.10;99.90;;;;;;4935002;29;20437;-72
2022/09/22 06:55:34;;;;;;;;;;;17.00;99.90;;;;;;4935644;29;19911;-68
2022/09/22 06:58:02;;;;;;;;;;;17.00;99.90;;;;;;4935474;29;20029;-70
2022/09/22 07:00:31;;;;;;;;;;;17.10;99.90;;;;;;4935529;29;19926;-74
2022/09/22 07:03:06;;;;;;;;;;;17.10;99.90;;;;;;4934182;29;20528;-69
2022/09/22 07:05:33;;;;;;;;;;;17.00;99.90;;;;;;4935132;29;20047;-69
2022/09/22 07:08:00;;;;;;;;;;;17.00;99.90;;;;;;4935685;29;19958;-68
2022/09/22 07:10:27;;;;;;;;;;;16.90;99.90;;;;;;4936694;29;19962;-71
2022/09/22 07:12:55;;;;;;;;;;;16.90;99.90;;;;;;4935601;29;20059;-74
2022/09/22 07:15:21;;;;;;;;;;;17.00;99.90;;;;;;4935060;29;19914;-68
2022/09/22 07:17:52;;;;;;;;;;;17.00;99.90;;;;;;4934279;29;19919;-72
2022/09/22 07:20:20;;;;;;;;;;;16.90;99.90;;;;;;4934612;29;19915;-68
2022/09/22 07:22:57;;;;;;;;;;;17.00;99.90;;;;;;4935022;29;19917;-73
2022/09/22 07:25:23;;;;;;;;;;;17.00;99.90;;;;;;4935582;29;19950;-68
2022/09/22 07:27:51;;;;;;;;;;;17.00;99.90;;;;;;4935027;29;19915;-71
2022/09/22 07:30:27;;;;;;;;;;;17.00;99.90;;;;;;4935332;29;19918;-74
2022/09/22 07:32:57;;;;;;;;;;;17.00;99.90;;;;;;4936439;29;19911;-72
2022/09/22 07:35:24;;;;;;;;;;;17.10;99.90;;;;;;4935605;29;19938;-68
2022/09/22 07:37:55;;;;;;;;;;;17.00;99.90;;;;;;4938095;29;19918;-72
2022/09/22 07:40:25;;;;;;;;;;;17.00;99.90;;;;;;4944340;29;19921;-73
2022/09/22 07:42:52;;;;;;;;;;;16.90;99.90;;;;;;4944203;29;19949;-71
2022/09/22 07:45:20;;;;;;;;;;;16.80;99.90;;;;;;4936138;29;19981;-69
2022/09/22 07:50:35;;;;;;;;;;;16.50;99.90;;;;;;4934681;29;20282;-68
2022/09/22 07:53:03;;;;;;;;;;;16.30;99.90;;;;;;4934313;29;20261;-69
2022/09/22 07:55:29;;;;;;;;;;;16.20;99.90;;;;;;4934109;29;19919;-73
2022/09/22 07:57:57;;;;;;;;;;;16.20;99.90;;;;;;4933748;29;19958;-69
2022/09/22 08:00:25;;;;;;;;;;;16.20;99.90;;;;;;4934246;29;20370;-68
2022/09/22 08:02:54;;;;;;;;;;;16.10;99.90;;;;;;4933708;29;19918;-71
2022/09/22 08:05:22;;;;;;;;;;;16.00;99.90;;;;;;4931782;29;19923;-68
2022/09/22 08:07:48;;;;;;;;;;;16.00;99.90;;;;;;4933762;29;19957;-74
2022/09/22 08:10:15;;;;;;;;;;;15.90;99.90;;;;;;4934048;29;19946;-69
2022/09/22 08:12:43;;;;;;;;;;;15.80;99.90;;;;;;4933794;29;19915;-70
2022/09/22 08:15:11;;;;;;;;;;;15.70;99.90;;;;;;4934060;29;19917;-69
2022/09/22 08:17:39;;;;;;;;;;;15.70;99.90;;;;;;4933938;29;19919;-70
2022/09/22 08:20:06;;;;;;;;;;;15.70;99.90;;;;;;4926559;29;19926;-70
2022/09/22 08:22:33;;;;;;;;;;;15.70;99.90;;;;;;4914156;29;19915;-74
2022/09/22 08:25:00;;;;;;;;;;;15.60;99.90;;;;;;4914958;29;19961;-73
2022/09/22 08:27:26;;;;;;;;;;;15.60;99.90;;;;;;4914725;29;19919;-72
2022/09/22 08:29:53;;;;;;;;;;;15.70;99.90;;;;;;4933926;29;20306;-73
2022/09/22 08:32:20;;;;;;;;;;;15.70;99.90;;;;;;4948110;29;20354;-73
2022/09/22 08:34:47;;;;;;;;;;;15.70;99.90;;;;;;4933239;29;20374;-73
2022/09/22 08:37:14;;;;;;;;;;;15.70;99.90;;;;;;4931455;29;19923;-71
2022/09/22 08:39:40;;;;;;;;;;;15.70;99.90;;;;;;4933718;29;19910;-71
2022/09/22 08:42:08;;;;;;;;;;;15.80;99.90;;;;;;4933096;29;19922;-72
2022/09/22 08:44:37;;;;;;;;;;;15.80;99.90;;;;;;4933551;29;20362;-71
2022/09/22 08:47:04;;;;;;;;;;;15.80;99.90;;;;;;4933316;29;19922;-72
2022/09/22 08:52:32;;;;;;;;;;;15.60;99.90;;;;;;4933273;29;19983;-72
2022/09/22 08:55:00;;;;;;;;;;;15.60;99.90;;;;;;4933525;29;19922;-73
2022/09/22 08:57:29;;;;;;;;;;;15.60;99.90;;;;;;4932945;29;20595;-73
2022/09/22 09:00:10;;;;;;;;;;;15.60;99.90;;;;;;4933079;29;19934;-74
2022/09/22 09:02:45;;;;;;;;;;;15.60;99.90;;;;;;4932550;29;19961;-69
2022/09/22 09:05:44;;;;;;;;;;;15.60;99.90;;;;;;4933122;29;19911;-72
2022/09/22 09:08:26;;;;;;;;;;;15.60;99.90;;;;;;4933768;29;19915;-73
2022/09/22 09:10:54;;;;;;;;;;;15.70;99.90;;;;;;4936182;29;20271;-74
2022/09/22 09:13:43;;;;;;;;;;;15.70;99.90;;;;;;4935741;29;20419;-72
2022/09/22 09:16:12;;;;;;;;;;;15.80;99.90;;;;;;4916490;29;19981;-73
2022/09/22 09:18:40;;;;;;;;;;;15.80;99.90;;;;;;4935149;29;19923;-73
2022/09/22 09:21:09;;;;;;;;;;;15.80;99.90;;;;;;4934434;29;20375;-71
2022/09/22 09:24:00;;;;;;;;;;;15.80;99.90;;;;;;4933816;29;19925;-73
2022/09/22 09:26:27;;;;;;;;;;;15.80;99.90;;;;;;4934920;29;19926;-70
2022/09/22 09:28:55;;;;;;;;;;;15.80;99.90;;;;;;4934999;29;20398;-73
2022/09/22 09:31:30;;;;;;;;;;;15.90;99.90;;;;;;4934329;29;19919;-73
2022/09/22 09:34:01;;;;;;;;;;;15.90;99.90;;;;;;4934832;29;20405;-72
2022/09/22 09:36:30;;;;;;;;;;;15.90;99.90;;;;;;4934654;29;19926;-73
2022/09/22 09:38:57;;;;;;;;;;;15.90;99.90;;;;;;4934691;29;19915;-74
2022/09/22 09:41:33;;;;;;;;;;;15.90;99.90;;;;;;4933928;29;20388;-74
2022/09/22 09:44:00;;;;;;;;;;;16.00;99.90;;;;;;4934690;29;19978;-72
2022/09/22 09:46:38;;;;;;;;;;;16.00;99.90;;;;;;4933030;29;19911;-73
2022/09/22 09:49:16;;;;;;;;;;;16.00;99.90;;;;;;4934097;29;19923;-74
2022/09/22 09:51:47;;;;;;;;;;;16.00;99.90;;;;;;4934304;29;20005;-73
2022/09/22 09:54:15;;;;;;;;;;;16.00;99.90;;;;;;4932392;29;20325;-69
2022/09/22 09:57:01;;;;;;;;;;;16.10;99.90;;;;;;4927471;29;19922;-70
2022/09/22 10:02:20;;;;;;;;;;;16.10;99.90;;;;;;4931363;29;19982;-73
2022/09/22 10:04:57;;;;;;;;;;;16.10;99.90;;;;;;4913438;29;19919;-71
2022/09/22 10:07:25;;;;;;;;;;;16.10;99.90;;;;;;4924641;29;19919;-73
2022/09/22 10:09:53;;;;;;;;;;;16.10;99.90;;;;;;4931969;29;19915;-71
2022/09/22 10:12:22;;;;;;;;;;;16.10;99.90;;;;;;4931489;29;20240;-74
2022/09/22 10:14:50;;;;;;;;;;;16.20;99.90;;;;;;4934991;29;20002;-68
2022/09/22 10:17:26;;;;;;;;;;;16.20;99.90;;;;;;4936078;29;19982;-72
2022/09/22 10:19:55;;;;;;;;;;;16.30;99.90;;;;;;4936454;29;19911;-69
2022/09/22 10:22:24;;;;;;;;;;;16.20;99.90;;;;;;4935894;29;19955;-68
2022/09/22 10:25:00;;;;;;;;;;;16.20;99.90;;;;;;4935317;29;19918;-73
2022/09/22 10:27:28;;;;;;;;;;;16.20;99.90;;;;;;4920646;29;19961;-71
2022/09/22 10:30:10;;;;;;;;;;;16.20;99.90;;;;;;4935884;29;19962;-68
2022/09/22 10:32:37;;;;;;;;;;;16.20;99.90;;;;;;4935756;29;20448;-70
2022/09/22 10:35:26;;;;;;;;;;;16.20;99.90;;;;;;4935708;29;20267;-67
2022/09/22 10:37:55;;;;;;;;;;;16.30;99.90;;;;;;4935559;29;19919;-67
2022/09/22 10:40:22;;;;;;;;;;;16.20;99.90;;;;;;4935422;29;19924;-68
2022/09/22 10:42:51;;;;;;;;;;;16.00;99.90;;;;;;4934579;29;19925;-69
2022/09/22 10:45:21;;;;;;;;;;;16.00;99.90;;;;;;4933164;29;19919;-67
2022/09/22 10:47:54;;;;;;;;;;;15.90;99.90;;;;;;4935619;29;20293;-68
2022/09/22 10:50:30;;;;;;;;;;;15.80;99.90;;;;;;4935569;29;19993;-70
2022/09/22 10:53:06;;;;;;;;;;;15.80;99.90;;;;;;4933387;29;20677;-72
2022/09/22 10:55:48;;;;;;;;;;;15.70;99.90;;;;;;4932649;29;19923;-69
2022/09/22 10:58:23;;;;;;;;;;;15.70;99.90;;;;;;4935048;29;19923;-70
2022/09/22 11:00:53;;;;;;;;;;;15.70;99.90;;;;;;4934692;29;20009;-68
2022/09/22 11:03:23;;;;;;;;;;;15.60;99.90;;;;;;4931160;29;19918;-70
2022/09/22 11:12:17;;;;;;;;;;;15.60;99.90;;;;;;4927555;29;19925;-71
2022/09/22 11:15:06;;;;;;;;;;;15.50;99.90;;;;;;4917495;29;19923;-67
2022/09/22 11:17:40;;;;;;;;;;;15.50;99.90;;;;;;4929058;29;19923;-68
2022/09/22 11:20:20;;;;;;;;;;;15.60;99.90;;;;;;4932346;29;19915;-70
2022/09/22 11:23:05;;;;;;;;;;;15.50;99.90;;;;;;4934542;29;19919;-67
2022/09/22 11:25:32;;;;;;;;;;;15.50;99.90;;;;;;4930736;29;19974;-68
2022/09/22 11:27:59;;;;;;;;;;;15.50;99.90;;;;;;4934207;29;19918;-68
2022/09/22 11:30:27;;;;;;;;;;;15.50;99.90;;;;;;4934316;29;19918;-70
2022/09/22 11:32:56;;;;;;;;;;;15.50;99.90;;;;;;4933878;29;19918;-68
2022/09/22 11:35:28;;;;;;;;;;;15.40;99.90;;;;;;4930124;29;19919;-69
2022/09/22 11:38:01;;;;;;;;;;;15.40;99.90;;;;;;4933590;29;20285;-68
2022/09/22 11:40:31;;;;;;;;;;;15.50;99.90;;;;;;4933668;29;20286;-70
2022/09/22 11:43:04;;;;;;;;;;;15.50;99.90;;;;;;4934095;29;20297;-72
2022/09/22 11:45:31;;;;;;;;;;;15.50;99.90;;;;;;4933734;29;19993;-72
2022/09/22 11:47:57;;;;;;;;;;;15.50;99.90;;;;;;4933535;29;20002;-70
2022/09/22 11:50:24;;;;;;;;;;;15.40;99.90;;;;;;4933267;29;19919;-70
2022/09/22 11:52:56;;;;;;;;;;;15.50;99.90;;;;;;4933854;29;19941;-72
2022/09/22 11:55:29;;;;;;;;;;;15.50;99.90;;;;;;4933047;29;19915;-73
2022/09/22 11:57:57;;;;;;;;;;;15.60;99.90;;;;;;4933809;29;19919;-73
2022/09/22 12:00:25;;;;;;;;;;;15.60;99.90;;;;;;4933835;29;20382;-71
2022/09/22 12:02:57;;;;;;;;;;;15.50;99.90;;;;;;4932326;29;20568;-71
2022/09/22 12:05:27;;;;;;;;;;;15.60;99.90;;;;;;4928886;29;19914;-70
2022/09/22 12:08:01;;;;;;;;;;;15.60;99.90;;;;;;4925644;29;19915;-73
2022/09/22 12:10:36;;;;;;;;;;;15.60;99.90;;;;;;4933099;29;19989;-73
2022/09/22 12:13:04;;;;;;;;;;;15.60;99.90;;;;;;4933523;29;19915;-73
2022/09/22 12:15:39;;;;;;;;;;;15.60;99.90;;;;;;4931536;29;19915;-71
2022/09/22 12:18:32;;;;;;;;;;;15.60;99.90;;;;;;4933466;29;20017;-71
2022/09/22 12:20:58;;;;;;;;;;;15.70;99.90;;;;;;4928297;29;19925;-72
2022/09/22 12:23:34;;;;;;;;;;;15.70;99.90;;;;;;4932655;29;19915;-70
2022/09/22 12:26:03;;;;;;;;;;;15.70;99.90;;;;;;4931764;29;19992;-73
2022/09/22 12:28:31;;;;;;;;;;;15.80;99.90;;;;;;4933233;29;20417;-73
2022/09/22 12:31:06;;;;;;;;;;;15.80;99.90;;;;;;4933249;29;19977;-72
2022/09/22 12:33:34;;;;;;;;;;;15.80;99.90;;;;;;4933232;29;19915;-74
2022/09/22 12:36:02;;;;;;;;;;;15.90;99.90;;;;;;4933077;29;19926;-69
2022/09/22 12:38:30;;;;;;;;;;;15.80;99.90;;;;;;4933587;29;19918;-70
2022/09/22 12:40:58;;;;;;;;;;;15.90;99.90;;;;;;4933154;29;20390;-73
2022/09/22 12:43:26;;;;;;;;;;;15.90;99.90;;;;;;4933602;29;20001;-73
2022/09/22 12:45:54;;;;;;;;;;;15.90;99.90;;;;;;4932964;29;19914;-70
2022/09/22 12:48:26;;;;;;;;;;;15.80;99.90;;;;;;4933717;29;19915;-69
2022/09/22 12:50:59;;;;;;;;;;;15.70;99.90;;;;;;4933666;29;19914;-72
2022/09/22 12:53:27;;;;;;;;;;;15.70;99.90;;;;;;4933016;29;20037;-71
2022/09/22 12:55:55;;;;;;;;;;;15.60;99.90;;;;;;4932733;29;20262;-72
2022/09/22 12:58:25;;;;;;;;;;;15.70;99.90;;;;;;4933028;29;20026;-72
2022/09/22 13:00:53;;;;;;;;;;;15.70;99.90;;;;;;4933260;29;19927;-72
2022/09/22 13:03:26;;;;;;;;;;;15.70;99.90;;;;;;4932962;29;19915;-69
2022/09/22 13:05:57;;;;;;;;;;;15.70;99.90;;;;;;4925301;29;19919;-68
2022/09/22 13:08:32;;;;;;;;;;;15.80;99.90;;;;;;4914884;29;19915;-70
2022/09/22 13:11:06;;;;;;;;;;;15.70;99.90;;;;;;4922707;29;20025;-68
2022/09/22 13:13:35;;;;;;;;;;;15.70;99.90;;;;;;4933034;29;19922;-68
2022/09/22 13:16:04;;;;;;;;;;;15.70;99.90;;;;;;4931757;29;19919;-68
2022/09/22 13:18:40;;;;;;;;;;;15.70;99.90;;;;;;4932463;29;20073;-68
2022/09/22 13:21:13;;;;;;;;;;;15.70;99.90;;;;;;4932937;29;20477;-71
2022/09/22 13:23:49;;;;;;;;;;;15.80;99.90;;;;;;4932574;29;19915;-69
2022/09/22 13:26:16;;;;;;;;;;;15.80;99.90;;;;;;4932582;29;20344;-68
2022/09/22 13:28:43;;;;;;;;;;;15.80;99.90;;;;;;4932960;29;20438;-68
2022/09/22 13:31:16;;;;;;;;;;;15.80;99.90;;;;;;4932714;29;20277;-70
2022/09/22 13:33:43;;;;;;;;;;;15.70;99.90;;;;;;4932951;29;19915;-68
2022/09/22 13:36:14;;;;;;;;;;;15.70;99.90;;;;;;4932377;29;20260;-68
2022/09/22 13:38:53;;;;;;;;;;;15.60;99.90;;;;;;4932674;29;19919;-70
2022/09/22 13:41:22;;;;;;;;;;;15.60;99.90;;;;;;4932623;29;19911;-71
2022/09/22 13:43:53;;;;;;;;;;;15.60;99.90;;;;;;4932908;29;20486;-70
2022/09/22 13:46:25;;;;;;;;;;;15.60;99.90;;;;;;4932378;29;19965;-70
2022/09/22 13:48:54;;;;;;;;;;;15.60;99.90;;;;;;4935052;29;19957;-71
2022/09/22 13:51:23;;;;;;;;;;;15.60;99.90;;;;;;4936454;29;19911;-70
2022/09/22 13:53:51;;;;;;;;;;;15.60;99.90;;;;;;4936858;29;19953;-71
2022/09/22 13:56:20;;;;;;;;;;;15.50;99.90;;;;;;4936332;29;19954;-70
2022/09/22 13:58:48;;;;;;;;;;;15.50;99.90;;;;;;4936635;29;19929;-68
2022/09/22 14:01:19;;;;;;;;;;;15.50;99.90;;;;;;4936282;29;19953;-70
2022/09/22 14:03:47;;;;;;;;;;;15.50;99.90;;;;;;4936550;29;19915;-72
2022/09/22 14:06:18;;;;;;;;;;;15.60;99.90;;;;;;4936414;29;19919;-72
2022/09/22 14:08:46;;;;;;;;;;;15.60;99.90;;;;;;4936570;29;19915;-71
2022/09/22 14:11:15;;;;;;;;;;;15.60;99.90;;;;;;4936016;29;19973;-72
2022/09/22 14:14:02;;;;;;;;;;;15.60;99.90;;;;;;4936639;29;19911;-71
2022/09/22 14:16:49;;;;;;;;;;;15.60;99.90;;;;;;4935711;29;19965;-69
2022/09/22 14:19:28;;;;;;;;;;;15.70;99.90;;;;;;4935142;29;19919;-72
2022/09/22 14:21:56;;;;;;;;;;;15.70;99.90;;;;;;4935085;29;20005;-70
2022/09/22 14:24:23;;;;;;;;;;;15.60;99.90;;;;;;4936195;29;19911;-70
2022/09/22 14:26:54;;;;;;;;;;;15.70;99.90;;;;;;4935317;29;19970;-72
2022/09/22 14:29:25;;;;;;;;;;;15.70;99.90;;;;;;4934971;29;19925;-72
2022/09/22 14:31:54;;;;;;;;;;;15.70;99.90;;;;;;4935803;29;20364;-69
2022/09/22 14:34:24;;;;;;;;;;;15.70;99.90;;;;;;4935963;29;20021;-68
2022/09/22 14:36:51;;;;;;;;;;;15.70;99.90;;;;;;4935645;29;20009;-69
2022/09/22 14:39:21;;;;;;;;;;;15.70;99.90;;;;;;4935846;29;19966;-68
2022/09/22 14:41:54;;;;;;;;;;;15.60;99.90;;;;;;4935801;29;19950;-68
2022/09/22 14:44:33;;;;;;;;;;;15.60;99.90;;;;;;4923304;29;20355;-70
2022/09/22 14:47:18;;;;;;;;;;;15.60;99.90;;;;;;4916757;29;19943;-68